createdAt,value
2017-12-08T00:00:50.262Z,99031.52
2017-12-08T00:03:24.047Z,99023.03
2017-12-08T00:05:57.435Z,99018.58
2017-12-08T00:08:31.435Z,99028.31
2017-12-08T00:11:04.858Z,99018.21
2017-12-08T00:13:38.589Z,99021.89
2017-12-08T00:16:12.117Z,99017.64
2017-12-08T00:18:45.786Z,99012.36
2017-12-08T00:21:19.374Z,99009.28
2017-12-08T00:23:53.650Z,99015.02
2017-12-08T00:26:27.207Z,99014.19
2017-12-08T00:29:00.849Z,99013.94
2017-12-08T00:31:34.321Z,99010.09
2017-12-08T00:34:08.044Z,99008.93
2017-12-08T00:36:41.924Z,99005.85
2017-12-08T00:39:15.604Z,99004.72
2017-12-08T00:41:49.254Z,98998.79
2017-12-08T00:44:22.781Z,99006.05
2017-12-08T00:46:56.258Z,99004.65
2017-12-08T00:49:30.149Z,99005.33
2017-12-08T00:52:03.797Z,99004.83
2017-12-08T00:54:37.434Z,99007.14
2017-12-08T00:57:10.901Z,99009.39
2017-12-08T00:59:44.694Z,99012.14
2017-12-08T01:02:18.633Z,99015.06
2017-12-08T01:04:52.145Z,99006.45
2017-12-08T01:07:25.841Z,99017.92
2017-12-08T01:09:59.606Z,99019.89
2017-12-08T01:12:33.317Z,99007.59
2017-12-08T01:15:07.013Z,99017.79
2017-12-08T01:17:41.117Z,99017.03
2017-12-08T01:20:14.657Z,99011.39
2017-12-08T01:22:48.292Z,99010.59
2017-12-08T01:25:22.004Z,99024.21
2017-12-08T01:27:55.607Z,99026.72
2017-12-08T01:30:29.193Z,99037.07
2017-12-08T01:33:03.052Z,99045.23
2017-12-08T01:35:36.709Z,99074.69
2017-12-08T01:38:10.301Z,99087.18
2017-12-08T01:40:43.902Z,99089.05
2017-12-08T01:43:17.421Z,99076.44
2017-12-08T01:45:50.964Z,99072.88
2017-12-08T01:48:24.636Z,99072.17
2017-12-08T01:50:58.084Z,99059.61
2017-12-08T01:53:31.609Z,99062.82
2017-12-08T01:56:05.161Z,99068.13
2017-12-08T01:58:39.642Z,99075.92
2017-12-08T02:01:13.308Z,99079.41
2017-12-08T02:03:47.274Z,99087.89
2017-12-08T02:06:20.791Z,99083.50
2017-12-08T02:08:54.243Z,99090.34
2017-12-08T02:11:27.780Z,99083.20
2017-12-08T02:14:01.440Z,99081.06
2017-12-08T02:16:35.083Z,99079.69
2017-12-08T02:19:09.007Z,99070.48
2017-12-08T02:21:42.711Z,99072.36
2017-12-08T02:24:16.025Z,99070.40
2017-12-08T02:26:50.065Z,99065.02
2017-12-08T02:29:23.563Z,99067.85
2017-12-08T02:31:57.302Z,99065.24
2017-12-08T02:34:30.998Z,99060.00
2017-12-08T02:37:04.632Z,99060.28
2017-12-08T02:39:38.519Z,99061.09
2017-12-08T02:42:12.110Z,99062.23
2017-12-08T02:44:45.477Z,99068.89
2017-12-08T02:47:19.050Z,99074.64
2017-12-08T02:49:52.509Z,99084.56
2017-12-08T02:52:26.527Z,99085.87
2017-12-08T02:55:00.049Z,99091.03
2017-12-08T02:57:33.646Z,99087.62
2017-12-08T03:00:07.284Z,99094.67
2017-12-08T03:02:40.932Z,99087.38
2017-12-08T03:05:14.786Z,99101.02
2017-12-08T03:07:48.485Z,99098.25
2017-12-08T03:10:22.428Z,99102.37
2017-12-08T03:12:56.099Z,99110.71
2017-12-08T03:15:29.617Z,99105.80
2017-12-08T03:18:03.312Z,99110.77
2017-12-08T03:20:37.667Z,99110.05
2017-12-08T03:23:11.302Z,99115.57
2017-12-08T03:25:44.874Z,99115.00
2017-12-08T03:28:18.519Z,99115.05
2017-12-08T03:30:52.369Z,99125.15
2017-12-08T03:33:25.862Z,99120.60
2017-12-08T03:35:59.554Z,99123.05
2017-12-08T03:38:33.649Z,99126.88
2017-12-08T03:41:07.388Z,99137.21
2017-12-08T03:43:40.997Z,99147.57
2017-12-08T03:46:14.993Z,99147.50
2017-12-08T03:48:48.515Z,99153.84
2017-12-08T03:51:22.190Z,99163.02
2017-12-08T03:53:55.818Z,99152.77
2017-12-08T03:56:29.257Z,99149.48
2017-12-08T03:59:02.836Z,99140.02
2017-12-08T04:01:36.974Z,99139.46
2017-12-08T04:04:10.614Z,99145.40
2017-12-08T04:06:44.230Z,99152.01
2017-12-08T04:09:17.675Z,99146.41
2017-12-08T04:11:51.410Z,99153.72
2017-12-08T04:14:25.013Z,99152.68
2017-12-08T04:16:59.142Z,99153.95
2017-12-08T04:19:32.850Z,99158.23
2017-12-08T04:22:06.739Z,99157.27
2017-12-08T04:24:40.389Z,99163.07
2017-12-08T04:27:14.322Z,99162.47
2017-12-08T04:29:48.256Z,99162.29
2017-12-08T04:32:21.993Z,99163.98
2017-12-08T04:34:56.403Z,99167.15
2017-12-08T04:37:30.299Z,99166.78
2017-12-08T04:40:03.866Z,99172.95
2017-12-08T04:42:37.519Z,99168.36
2017-12-08T04:45:12.010Z,99176.38
2017-12-08T04:47:45.949Z,99181.75
2017-12-08T04:50:19.488Z,99179.55
2017-12-08T04:52:53.240Z,99177.00
2017-12-08T04:55:26.915Z,99168.84
2017-12-08T04:58:00.566Z,99175.40
2017-12-08T05:00:34.133Z,99176.27
2017-12-08T05:03:08.025Z,99174.27
2017-12-08T05:05:41.792Z,99177.53
2017-12-08T05:08:18.380Z,99178.33
2017-12-08T05:10:51.948Z,99174.41
2017-12-08T05:13:25.497Z,99172.80
2017-12-08T05:15:59.320Z,99174.75
2017-12-08T05:18:32.951Z,99190.78
2017-12-08T05:21:06.609Z,99184.06
2017-12-08T05:23:40.223Z,99185.20
2017-12-08T05:26:14.895Z,99177.57
2017-12-08T05:28:48.846Z,99186.94
2017-12-08T05:31:22.956Z,99182.98
2017-12-08T05:33:56.586Z,99181.84
2017-12-08T05:36:30.104Z,99172.67
2017-12-08T05:39:03.624Z,99170.69
2017-12-08T05:41:37.620Z,99177.00
2017-12-08T05:44:11.368Z,99179.70
2017-12-08T05:46:44.994Z,99183.85
2017-12-08T05:49:18.635Z,99173.34
2017-12-08T05:51:52.449Z,99181.36
2017-12-08T05:54:25.975Z,99175.98
2017-12-08T05:57:00.046Z,99181.10
2017-12-08T05:59:33.712Z,99174.56
2017-12-08T06:02:07.249Z,99179.14
2017-12-08T06:04:41.158Z,99170.77
2017-12-08T06:07:14.653Z,99180.52
2017-12-08T06:09:48.509Z,99184.64
2017-12-08T06:12:22.524Z,99183.23
2017-12-08T06:14:56.115Z,99182.84
2017-12-08T06:17:29.658Z,99177.02
2017-12-08T06:20:03.308Z,99181.28
2017-12-08T06:22:36.865Z,99176.73
2017-12-08T06:25:10.475Z,99177.42
2017-12-08T06:27:44.703Z,99174.60
2017-12-08T06:30:18.584Z,99179.82
2017-12-08T06:32:52.109Z,99173.92
2017-12-08T06:35:26.801Z,99185.77
2017-12-08T06:38:00.564Z,99182.42
2017-12-08T06:40:34.080Z,99182.52
2017-12-08T06:43:10.092Z,99188.20
2017-12-08T06:45:43.908Z,99183.46
2017-12-08T06:48:17.807Z,99190.52
2017-12-08T06:50:51.496Z,99194.27
2017-12-08T06:53:25.053Z,99194.48
2017-12-08T06:55:58.611Z,99191.88
2017-12-08T06:58:32.163Z,99192.66
2017-12-08T07:01:06.041Z,99196.88
2017-12-08T07:03:37.816Z,99199.58
2017-12-08T07:06:09.621Z,99197.75
2017-12-08T07:08:42.622Z,99195.10
2017-12-08T07:11:16.420Z,99198.00
2017-12-08T07:13:50.443Z,99197.39
2017-12-08T07:16:24.863Z,99203.20
2017-12-08T07:18:58.684Z,99207.03
2017-12-08T07:21:32.445Z,99220.28
2017-12-08T07:24:09.833Z,99217.22
2017-12-08T07:26:43.555Z,99233.95
2017-12-08T07:29:17.439Z,99228.45
2017-12-08T07:31:51.169Z,99225.48
2017-12-08T07:34:24.997Z,99231.84
2017-12-08T07:36:58.703Z,99232.47
2017-12-08T07:39:32.724Z,99234.81
2017-12-08T07:42:06.416Z,99239.27
2017-12-08T07:44:40.133Z,99238.83
2017-12-08T07:47:13.790Z,99242.42
2017-12-08T07:49:47.504Z,99250.48
2017-12-08T07:52:21.088Z,99257.67
2017-12-08T07:54:54.990Z,99266.73
2017-12-08T07:57:28.874Z,99261.97
2017-12-08T08:00:04.321Z,99263.14
2017-12-08T08:02:38.059Z,99263.18
2017-12-08T08:05:13.700Z,99263.39
2017-12-08T08:07:47.600Z,99270.32
2017-12-08T08:10:21.241Z,99274.66
2017-12-08T08:12:54.911Z,99278.77
2017-12-08T08:15:28.740Z,99269.17
2017-12-08T08:18:02.993Z,99272.14
2017-12-08T08:20:36.656Z,99270.84
2017-12-08T08:23:10.211Z,99280.53
2017-12-08T08:25:43.927Z,99273.84
2017-12-08T08:28:17.777Z,99277.27
2017-12-08T08:30:51.936Z,99277.27
2017-12-08T08:33:26.058Z,99285.56
2017-12-08T08:35:59.708Z,99285.79
2017-12-08T08:38:34.059Z,99283.91
2017-12-08T08:41:07.677Z,99285.16
2017-12-08T08:43:42.031Z,99284.80
2017-12-08T08:46:16.768Z,99289.79
2017-12-08T08:48:50.606Z,99288.27
2017-12-08T08:51:24.182Z,99292.13
2017-12-08T08:53:57.991Z,99287.08
2017-12-08T08:56:32.300Z,99283.64
2017-12-08T08:59:06.010Z,99283.36
2017-12-08T09:01:39.670Z,99275.56
2017-12-08T09:04:13.337Z,99283.72
2017-12-08T09:06:47.170Z,99287.15
2017-12-08T09:09:21.294Z,99295.39
2017-12-08T09:11:55.089Z,99299.39
2017-12-08T09:14:28.060Z,99304.54
2017-12-08T09:17:01.690Z,99311.59
2017-12-08T09:19:35.330Z,99314.89
2017-12-08T09:22:09.548Z,99314.19
2017-12-08T09:24:43.284Z,99314.91
2017-12-08T09:27:16.814Z,99315.84
2017-12-08T09:29:51.983Z,99309.55
2017-12-08T09:32:26.742Z,99307.42
2017-12-08T09:35:00.782Z,99303.91
2017-12-08T09:37:34.495Z,99310.47
2017-12-08T09:40:09.683Z,99307.81
2017-12-08T09:42:43.505Z,99299.76
2017-12-08T09:45:17.530Z,99303.51
2017-12-08T09:47:51.137Z,99304.86
2017-12-08T09:50:24.738Z,99312.92
2017-12-08T09:52:59.244Z,99315.89
2017-12-08T09:55:32.896Z,99314.02
2017-12-08T09:58:06.461Z,99308.30
2017-12-08T10:00:40.452Z,99308.44
2017-12-08T10:03:14.052Z,99307.61
2017-12-08T10:05:47.580Z,99306.72
2017-12-08T10:08:22.457Z,99303.20
2017-12-08T10:10:56.015Z,99301.29
2017-12-08T10:13:29.723Z,99290.42
2017-12-08T10:16:06.463Z,99293.91
2017-12-08T10:18:41.806Z,99286.34
2017-12-08T10:21:15.610Z,99279.44
2017-12-08T10:23:50.231Z,99280.58
2017-12-08T10:26:24.007Z,99264.45
2017-12-08T10:28:58.107Z,99268.89
2017-12-08T10:31:31.789Z,99267.84
2017-12-08T10:34:05.511Z,99269.54
2017-12-08T10:36:38.936Z,99263.72
2017-12-08T10:39:12.640Z,99269.89
2017-12-08T10:41:46.985Z,99266.47
2017-12-08T10:44:20.747Z,99261.41
2017-12-08T10:46:55.237Z,99265.03
2017-12-08T10:49:28.723Z,99251.81
2017-12-08T10:52:02.350Z,99244.49
2017-12-08T10:54:36.354Z,99246.05
2017-12-08T10:57:10.097Z,99235.59
2017-12-08T10:59:43.555Z,99240.88
2017-12-08T11:02:17.097Z,99231.56
2017-12-08T11:04:50.764Z,99237.55
2017-12-08T11:07:24.558Z,99232.38
2017-12-08T11:09:59.164Z,99231.91
2017-12-08T11:12:32.953Z,99226.61
2017-12-08T11:15:06.820Z,99228.89
2017-12-08T11:17:40.839Z,99230.36
2017-12-08T11:20:14.964Z,99230.48
2017-12-08T11:22:48.569Z,99231.10
2017-12-08T11:25:22.640Z,99226.20
2017-12-08T11:27:56.216Z,99219.75
2017-12-08T11:30:29.856Z,99213.08
2017-12-08T11:33:03.495Z,99205.52
2017-12-08T11:35:37.181Z,99199.64
2017-12-08T11:38:11.103Z,99190.44
2017-12-08T11:40:45.248Z,99183.52
2017-12-08T11:43:18.895Z,99174.48
2017-12-08T11:45:52.706Z,99178.27
2017-12-08T11:48:26.435Z,99171.27
2017-12-08T11:51:00.199Z,99179.31
2017-12-08T11:53:33.890Z,99178.48
2017-12-08T11:56:08.048Z,99180.16
2017-12-08T11:58:41.991Z,99168.55
2017-12-08T12:01:15.550Z,99171.55
2017-12-08T12:03:50.087Z,99172.52
2017-12-08T12:06:23.697Z,99166.02
2017-12-08T12:08:57.621Z,99165.61
2017-12-08T12:11:31.213Z,99176.64
2017-12-08T12:14:04.868Z,99181.86
2017-12-08T12:16:39.071Z,99175.30
2017-12-08T12:19:12.967Z,99185.16
2017-12-08T12:21:46.691Z,99179.33
2017-12-08T12:24:20.242Z,99186.47
2017-12-08T12:26:53.885Z,99193.10
2017-12-08T12:29:27.499Z,99193.78
2017-12-08T12:32:01.641Z,99187.57
2017-12-08T12:34:35.619Z,99178.61
2017-12-08T12:37:09.339Z,99181.20
2017-12-08T12:39:43.307Z,99177.58
2017-12-08T12:42:17.021Z,99170.18
2017-12-08T12:44:50.737Z,99162.69
2017-12-08T12:47:24.314Z,99160.30
2017-12-08T12:49:57.859Z,99158.18
2017-12-08T12:52:31.494Z,99153.58
2017-12-08T12:55:05.105Z,99151.38
2017-12-08T12:57:38.801Z,99153.41
2017-12-08T13:00:15.529Z,99148.84
2017-12-08T13:02:48.960Z,99133.68
2017-12-08T13:05:23.199Z,99131.45
2017-12-08T13:07:56.604Z,99130.72
2017-12-08T13:10:30.600Z,99119.98
2017-12-08T13:13:04.203Z,99121.68
2017-12-08T13:15:37.847Z,99121.25
2017-12-08T13:18:12.067Z,99121.72
2017-12-08T13:20:45.580Z,99117.84
2017-12-08T13:23:19.329Z,99121.62
2017-12-08T13:25:53.325Z,99125.59
2017-12-08T13:28:27.053Z,99118.95
2017-12-08T13:31:01.076Z,99119.70
2017-12-08T13:33:34.612Z,99136.34
2017-12-08T13:36:08.133Z,99121.30
2017-12-08T13:38:42.044Z,99108.19
2017-12-08T13:41:15.870Z,99112.61
2017-12-08T13:43:49.345Z,99116.27
2017-12-08T13:46:23.504Z,99117.03
2017-12-08T13:48:57.278Z,99117.58
2017-12-08T13:51:30.865Z,99128.38
2017-12-08T13:54:15.262Z,99138.06
2017-12-08T13:56:54.920Z,99134.89
2017-12-08T13:59:28.550Z,99136.15
2017-12-08T14:02:02.095Z,99139.95
2017-12-08T14:04:35.629Z,99135.18
2017-12-08T14:07:09.326Z,99137.23
2017-12-08T14:09:43.306Z,99145.45
2017-12-08T14:12:16.928Z,99151.77
2017-12-08T14:14:50.758Z,99152.95
2017-12-08T14:17:24.547Z,99150.94
2017-12-08T14:19:58.573Z,99155.55
2017-12-08T14:22:33.664Z,99158.91
2017-12-08T14:25:07.718Z,99158.81
2017-12-08T14:27:41.309Z,99157.81
2017-12-08T14:30:16.994Z,99159.84
2017-12-08T14:32:51.471Z,99161.02
2017-12-08T14:35:25.565Z,99162.47
2017-12-08T14:37:59.252Z,99163.67
2017-12-08T14:40:32.866Z,99170.83
2017-12-08T14:43:06.903Z,99172.11
2017-12-08T14:45:40.635Z,99176.92
2017-12-08T14:48:16.393Z,99190.14
2017-12-08T14:50:51.276Z,99184.34
2017-12-08T14:53:25.834Z,99176.66
2017-12-08T14:55:59.930Z,99175.64
2017-12-08T14:58:33.486Z,99188.69
2017-12-08T15:01:07.237Z,99186.38
2017-12-08T15:03:40.774Z,99200.87
2017-12-08T15:06:14.414Z,99198.15
2017-12-08T15:08:48.410Z,99207.89
2017-12-08T15:11:21.854Z,99206.67
2017-12-08T15:13:55.452Z,99210.22
2017-12-08T15:16:29.139Z,99212.42
2017-12-08T15:19:02.866Z,99220.06
2017-12-08T15:21:37.261Z,99223.23
2017-12-08T15:24:10.838Z,99227.17
2017-12-08T15:26:45.608Z,99233.58
2017-12-08T15:29:19.673Z,99233.91
2017-12-08T15:31:53.979Z,99236.20
2017-12-08T15:34:27.914Z,99235.46
2017-12-08T15:37:01.667Z,99244.89
2017-12-08T15:39:35.637Z,99249.03
2017-12-08T15:42:09.802Z,99252.47
2017-12-08T15:44:43.623Z,99259.97
2017-12-08T15:47:17.085Z,99254.09
2017-12-08T15:49:51.493Z,99254.71
2017-12-08T15:52:25.500Z,99259.03
2017-12-08T15:54:59.276Z,99252.41
2017-12-08T15:57:32.957Z,99266.26
2017-12-08T16:00:08.441Z,99262.36
2017-12-08T16:02:42.512Z,99266.34
2017-12-08T16:05:19.778Z,99263.39
2017-12-08T16:07:53.626Z,99276.90
2017-12-08T16:10:27.115Z,99281.14
2017-12-08T16:13:00.748Z,99282.72
2017-12-08T16:15:34.566Z,99281.34
2017-12-08T16:18:08.190Z,99284.52
2017-12-08T16:20:41.751Z,99293.48
2017-12-08T16:23:15.219Z,99305.39
2017-12-08T16:25:49.220Z,99329.33
2017-12-08T16:28:22.869Z,99337.45
2017-12-08T16:30:57.759Z,99333.64
2017-12-08T16:33:32.322Z,99334.52
2017-12-08T16:36:06.321Z,99343.31
2017-12-08T16:38:39.900Z,99349.16
2017-12-08T16:41:13.985Z,99344.85
2017-12-08T16:43:47.694Z,99339.66
2017-12-08T16:46:21.840Z,99333.86
2017-12-08T16:48:55.459Z,99337.23
2017-12-08T16:51:29.099Z,99336.44
2017-12-08T16:54:02.808Z,99330.77
2017-12-08T16:56:36.570Z,99340.97
2017-12-08T16:59:10.394Z,99342.78
2017-12-08T17:01:43.991Z,99350.81
2017-12-08T17:04:18.067Z,99354.51
2017-12-08T17:06:52.282Z,99359.44
2017-12-08T17:09:25.897Z,99351.61
2017-12-08T17:12:00.524Z,99358.84
2017-12-08T17:14:34.155Z,99360.13
2017-12-08T17:17:08.205Z,99361.69
2017-12-08T17:19:41.948Z,99359.33
2017-12-08T17:22:15.777Z,99359.38
2017-12-08T17:24:48.729Z,99364.69
2017-12-08T17:27:22.714Z,99363.98
2017-12-08T17:29:56.773Z,99364.98
2017-12-08T17:32:30.543Z,99369.61
2017-12-08T17:35:04.455Z,99374.07
2017-12-08T17:37:38.752Z,99362.95
2017-12-08T17:40:13.241Z,99360.16
2017-12-08T17:42:47.046Z,99363.25
2017-12-08T17:45:20.964Z,99374.88
2017-12-08T17:47:54.682Z,99392.13
2017-12-08T17:50:29.640Z,99386.17
2017-12-08T17:53:03.110Z,99384.09
2017-12-08T17:55:37.674Z,99382.81
2017-12-08T17:58:11.295Z,99380.91
2017-12-08T18:00:45.142Z,99381.22
2017-12-08T18:03:19.426Z,99391.77
2017-12-08T18:05:53.059Z,99387.05
2017-12-08T18:08:26.679Z,99392.09
2017-12-08T18:11:00.478Z,99395.37
2017-12-08T18:13:34.170Z,99401.47
2017-12-08T18:16:08.049Z,99402.46
2017-12-08T18:18:41.908Z,99392.55
2017-12-08T18:21:15.624Z,99398.84
2017-12-08T18:23:49.316Z,99402.53
2017-12-08T18:26:23.338Z,99405.07
2017-12-08T18:28:57.326Z,99404.97
2017-12-08T18:31:31.464Z,99421.39
2017-12-08T18:34:05.101Z,99427.36
2017-12-08T18:36:42.378Z,99434.64
2017-12-08T18:39:16.204Z,99431.06
2017-12-08T18:41:49.946Z,99436.05
2017-12-08T18:44:23.605Z,99435.02
2017-12-08T18:46:57.654Z,99441.66
2017-12-08T18:49:31.358Z,99442.14
2017-12-08T18:52:04.978Z,99454.58
2017-12-08T18:54:39.959Z,99458.05
2017-12-08T18:57:13.618Z,99452.22
2017-12-08T18:59:47.720Z,99459.00
2017-12-08T19:02:21.374Z,99451.80
2017-12-08T19:04:55.619Z,99457.16
2017-12-08T19:07:30.410Z,99463.28
2017-12-08T19:10:04.135Z,99456.58
2017-12-08T19:12:37.940Z,99461.24
2017-12-08T19:15:13.265Z,99455.55
2017-12-08T19:17:47.032Z,99456.20
2017-12-08T19:20:22.102Z,99459.36
2017-12-08T19:22:55.815Z,99459.00
2017-12-08T19:25:29.417Z,99459.34
2017-12-08T19:28:03.358Z,99460.84
2017-12-08T19:30:37.011Z,99464.94
2017-12-08T19:33:12.065Z,99462.69
2017-12-08T19:35:46.081Z,99454.56
2017-12-08T19:38:19.925Z,99449.41
2017-12-08T19:40:53.697Z,99459.63
2017-12-08T19:43:27.780Z,99453.34
2017-12-08T19:46:01.492Z,99455.36
2017-12-08T19:48:35.082Z,99454.66
2017-12-08T19:51:08.642Z,99459.63
2017-12-08T19:53:43.184Z,99460.28
2017-12-08T19:56:16.980Z,99461.89
2017-12-08T19:58:50.646Z,99466.11
2017-12-08T20:01:24.674Z,99466.04
2017-12-08T20:03:58.576Z,99464.95
2017-12-08T20:06:33.232Z,99457.27
2017-12-08T20:09:07.065Z,99460.66
2017-12-08T20:11:40.633Z,99463.89
2017-12-08T20:14:14.541Z,99474.48
2017-12-08T20:16:48.416Z,99471.35
2017-12-08T20:19:22.065Z,99473.42
2017-12-08T20:21:56.553Z,99477.52
2017-12-08T20:24:30.160Z,99469.20
2017-12-08T20:27:03.852Z,99474.59
2017-12-08T20:29:37.676Z,99471.67
2017-12-08T20:32:11.343Z,99471.39
2017-12-08T20:34:44.945Z,99472.94
2017-12-08T20:37:19.103Z,99473.27
2017-12-08T20:39:52.750Z,99479.06
2017-12-08T20:42:26.576Z,99478.83
2017-12-08T20:45:00.419Z,99484.86
2017-12-08T20:47:35.364Z,99484.79
2017-12-08T20:50:09.030Z,99488.55
2017-12-08T20:52:42.933Z,99488.55
2017-12-08T20:55:16.911Z,99481.84
2017-12-08T20:57:50.582Z,99486.41
2017-12-08T21:00:25.422Z,99482.11
2017-12-08T21:02:59.219Z,99488.77
2017-12-08T21:05:33.196Z,99479.45
2017-12-08T21:08:06.874Z,99480.65
2017-12-08T21:10:40.922Z,99478.20
2017-12-08T21:13:15.093Z,99479.78
2017-12-08T21:15:48.716Z,99478.02
2017-12-08T21:18:22.579Z,99469.13
2017-12-08T21:20:56.283Z,99468.78
2017-12-08T21:23:30.106Z,99478.88
2017-12-08T21:26:05.625Z,99475.83
2017-12-08T21:28:39.203Z,99473.71
2017-12-08T21:31:13.232Z,99467.25
2017-12-08T21:33:47.309Z,99472.47
2017-12-08T21:36:21.087Z,99473.10
2017-12-08T21:38:55.434Z,99469.20
2017-12-08T21:41:29.106Z,99470.33
2017-12-08T21:44:02.731Z,99463.58
2017-12-08T21:46:36.402Z,99453.59
2017-12-08T21:49:10.298Z,99457.07
2017-12-08T21:51:44.179Z,99454.08
2017-12-08T21:54:17.873Z,99454.22
2017-12-08T21:56:51.667Z,99460.88
2017-12-08T21:59:25.259Z,99454.11
2017-12-08T22:01:59.233Z,99457.53
2017-12-08T22:04:33.219Z,99455.11
2017-12-08T22:07:07.264Z,99451.53
2017-12-08T22:09:40.993Z,99453.88
2017-12-08T22:12:15.233Z,99445.59
2017-12-08T22:14:49.423Z,99437.53
2017-12-08T22:17:23.171Z,99434.09
2017-12-08T22:19:56.693Z,99434.36
2017-12-08T22:22:30.330Z,99434.47
2017-12-08T22:25:04.083Z,99425.20
2017-12-08T22:27:38.093Z,99424.22
2017-12-08T22:30:13.235Z,99424.03
2017-12-08T22:32:46.849Z,99426.36
2017-12-08T22:35:20.395Z,99428.56
2017-12-08T22:37:53.925Z,99424.80
2017-12-08T22:40:27.628Z,99426.42
2017-12-08T22:43:01.804Z,99430.75
2017-12-08T22:45:35.346Z,99429.36
2017-12-08T22:48:09.101Z,99434.70
2017-12-08T22:50:43.120Z,99434.60
2017-12-08T22:53:16.816Z,99431.38
2017-12-08T22:55:50.506Z,99432.06
2017-12-08T22:58:24.457Z,99432.14
2017-12-08T23:00:58.946Z,99438.67
2017-12-08T23:03:32.730Z,99431.24
2017-12-08T23:06:06.365Z,99429.39
2017-12-08T23:08:40.133Z,99423.89
2017-12-08T23:11:13.728Z,99431.79
2017-12-08T23:13:47.996Z,99432.09
2017-12-08T23:16:21.600Z,99431.79
2017-12-08T23:18:55.385Z,99434.27
2017-12-08T23:21:29.498Z,99433.90
2017-12-08T23:24:03.248Z,99432.89
2017-12-08T23:26:36.813Z,99429.80
2017-12-08T23:29:10.621Z,99426.40
2017-12-08T23:31:44.307Z,99424.43
2017-12-08T23:34:18.602Z,99423.11
2017-12-08T23:36:52.268Z,99419.64
2017-12-08T23:39:32.998Z,99412.55
2017-12-08T23:42:06.613Z,99408.99
2017-12-08T23:44:40.298Z,99406.18
2017-12-08T23:47:13.826Z,99407.78
2017-12-08T23:49:47.435Z,99398.91
2017-12-08T23:52:21.391Z,99393.65
2017-12-08T23:54:55.169Z,99404.19
2017-12-08T23:57:28.895Z,99395.72
